createdAt,value
2018-05-07T00:00:07.154Z,36.3
2018-05-07T00:00:57.213Z,36.3
2018-05-07T00:01:47.507Z,36.3
2018-05-07T00:02:37.310Z,36.3
2018-05-07T00:03:27.182Z,36.3
2018-05-07T00:04:17.236Z,36.3
2018-05-07T00:05:07.521Z,36.3
2018-05-07T00:05:59.044Z,36.3
2018-05-07T00:06:47.896Z,36.3
2018-05-07T00:07:37.820Z,36.3
2018-05-07T00:08:26.905Z,36.3
2018-05-07T00:09:18.267Z,36.3
2018-05-07T00:10:07.719Z,36.3
2018-05-07T00:10:58.278Z,36.3
2018-05-07T00:11:49.222Z,36.3
2018-05-07T00:12:37.864Z,36.3
2018-05-07T00:13:28.207Z,36.3
2018-05-07T00:14:18.023Z,36.3
2018-05-07T00:15:08.537Z,36.2
2018-05-07T00:15:58.110Z,36.3
2018-05-07T00:16:48.394Z,36.3
2018-05-07T00:17:38.177Z,36.2
2018-05-07T00:18:28.547Z,36.3
2018-05-07T00:19:18.027Z,36.2
2018-05-07T00:20:08.369Z,36.2
2018-05-07T00:20:58.141Z,36.2
2018-05-07T00:21:48.232Z,36.3
2018-05-07T00:22:38.344Z,36.2
2018-05-07T00:23:29.229Z,36.2
2018-05-07T00:24:19.007Z,36.2
2018-05-07T00:25:08.499Z,36.2
2018-05-07T00:25:58.561Z,36.2
2018-05-07T00:26:49.008Z,36.2
2018-05-07T00:27:39.074Z,36.2
2018-05-07T00:28:29.690Z,36.2
2018-05-07T00:29:19.368Z,36.2
2018-05-07T00:30:08.621Z,36.2
2018-05-07T00:30:59.284Z,36.2
2018-05-07T00:31:49.708Z,36.2
2018-05-07T00:32:39.675Z,36.2
2018-05-07T00:33:29.158Z,36.2
2018-05-07T00:34:19.033Z,36.2
2018-05-07T00:35:10.031Z,36.1
2018-05-07T00:36:00.145Z,36.2
2018-05-07T00:36:49.133Z,36.2
2018-05-07T00:37:40.298Z,36.1
2018-05-07T00:38:29.888Z,36.1
2018-05-07T00:39:20.135Z,36.1
2018-05-07T00:40:09.660Z,36.1
2018-05-07T00:40:59.993Z,36.1
2018-05-07T00:41:50.084Z,36.1
2018-05-07T00:42:40.180Z,36.1
2018-05-07T00:43:29.995Z,36.1
2018-05-07T00:44:20.885Z,36.1
2018-05-07T00:45:10.340Z,36.1
2018-05-07T00:45:59.833Z,36.1
2018-05-07T00:46:51.028Z,36.1
2018-05-07T00:47:41.069Z,36.1
2018-05-07T00:48:30.550Z,36.1
2018-05-07T00:49:20.859Z,36.1
2018-05-07T00:50:11.228Z,36.1
2018-05-07T00:51:01.067Z,36.1
2018-05-07T00:51:50.828Z,36.1
2018-05-07T00:52:41.446Z,36.1
2018-05-07T00:53:31.581Z,36.1
2018-05-07T00:54:21.283Z,36.1
2018-05-07T00:55:10.805Z,36.1
2018-05-07T00:56:00.868Z,36.1
2018-05-07T00:56:51.781Z,36.1
2018-05-07T00:57:41.576Z,36.1
2018-05-07T00:58:31.903Z,36.1
2018-05-07T00:59:21.119Z,36.1
2018-05-07T01:00:10.908Z,36.1
2018-05-07T01:01:01.848Z,36.1
2018-05-07T01:01:51.030Z,36.1
2018-05-07T01:02:42.241Z,36.1
2018-05-07T01:03:32.013Z,36.1
2018-05-07T01:04:22.073Z,36.1
2018-05-07T01:05:11.581Z,36.1
2018-05-07T01:06:01.948Z,36.1
2018-05-07T01:06:51.759Z,36.1
2018-05-07T01:07:42.036Z,36.1
2018-05-07T01:08:32.686Z,36
2018-05-07T01:09:22.447Z,36.1
2018-05-07T01:10:12.261Z,36.1
2018-05-07T01:11:02.314Z,36.1
2018-05-07T01:11:52.104Z,36
2018-05-07T01:12:43.322Z,36
2018-05-07T01:13:33.054Z,36.1
2018-05-07T01:14:22.577Z,36
2018-05-07T01:15:12.913Z,36
2018-05-07T01:16:03.218Z,36
2018-05-07T01:16:53.121Z,36
2018-05-07T01:17:42.844Z,36
2018-05-07T01:18:32.872Z,36
2018-05-07T01:19:22.956Z,36
2018-05-07T01:20:12.989Z,36
2018-05-07T01:21:03.597Z,36
2018-05-07T01:21:53.184Z,36
2018-05-07T01:22:43.743Z,36
2018-05-07T01:23:33.800Z,36
2018-05-07T01:24:23.707Z,36
2018-05-07T01:25:13.694Z,36
2018-05-07T01:26:03.762Z,36
2018-05-07T01:26:52.964Z,36
2018-05-07T01:27:43.651Z,35.9
2018-05-07T01:28:33.669Z,36
2018-05-07T01:29:23.739Z,35.9
2018-05-07T01:30:14.108Z,36
2018-05-07T01:31:03.578Z,36
2018-05-07T01:31:53.389Z,35.9
2018-05-07T01:32:44.287Z,36
2018-05-07T01:33:34.099Z,35.9
2018-05-07T01:34:23.821Z,35.9
2018-05-07T01:35:14.201Z,35.9
2018-05-07T01:36:04.547Z,35.9
2018-05-07T01:36:54.609Z,35.9
2018-05-07T01:37:44.363Z,35.9
2018-05-07T01:38:34.757Z,35.9
2018-05-07T01:39:24.627Z,35.9
2018-05-07T01:40:15.136Z,35.9
2018-05-07T01:41:04.899Z,35.9
2018-05-07T01:41:54.985Z,35.9
2018-05-07T01:42:45.341Z,35.9
2018-05-07T01:43:34.864Z,35.9
2018-05-07T01:44:24.660Z,35.9
2018-05-07T01:45:15.556Z,35.9
2018-05-07T01:46:05.541Z,35.9
2018-05-07T01:46:55.338Z,35.9
2018-05-07T01:47:45.116Z,35.9
2018-05-07T01:48:35.828Z,35.9
2018-05-07T01:49:25.551Z,35.9
2018-05-07T01:50:15.912Z,35.9
2018-05-07T01:51:06.049Z,35.9
2018-05-07T01:51:56.073Z,35.9
2018-05-07T01:52:46.085Z,35.9
2018-05-07T01:53:35.917Z,35.9
2018-05-07T01:54:26.283Z,35.9
2018-05-07T01:55:15.479Z,35.9
2018-05-07T01:56:05.782Z,35.9
2018-05-07T01:56:56.159Z,35.9
2018-05-07T01:57:46.499Z,35.9
2018-05-07T01:58:36.250Z,35.9
2018-05-07T01:59:26.362Z,35.9
2018-05-07T02:00:16.082Z,35.9
2018-05-07T02:01:06.446Z,35.9
2018-05-07T02:01:56.538Z,35.9
2018-05-07T02:02:46.311Z,35.9
2018-05-07T02:03:36.117Z,35.8
2018-05-07T02:04:26.442Z,35.9
2018-05-07T07:27:04.851Z,33.9
2018-05-07T07:27:55.017Z,33.9
2018-05-07T07:28:45.251Z,33.9
2018-05-07T07:29:35.288Z,33.9
2018-05-07T07:30:25.361Z,33.9
2018-05-07T07:31:15.159Z,33.9
2018-05-07T07:32:05.178Z,33.9
2018-05-07T07:32:55.296Z,33.9
2018-05-07T07:33:45.467Z,33.9
2018-05-07T07:34:34.848Z,33.9
2018-05-07T07:35:25.984Z,33.9
2018-05-07T07:36:15.517Z,33.8
2018-05-07T07:37:05.893Z,33.9
2018-05-07T07:37:55.912Z,33.8
2018-05-07T07:38:44.928Z,33.8
2018-05-07T07:39:36.651Z,33.9
2018-05-07T07:40:26.131Z,33.8
2018-05-07T07:41:15.088Z,33.8
2018-05-07T07:42:05.777Z,33.8
2018-05-07T07:42:55.506Z,33.8
2018-05-07T07:43:46.172Z,33.8
2018-05-07T07:44:36.487Z,33.8
2018-05-07T07:45:25.716Z,33.8
2018-05-07T07:46:16.567Z,33.8
2018-05-07T07:47:07.715Z,33.8
2018-05-07T07:47:56.703Z,33.8
2018-05-07T07:48:46.520Z,33.8
2018-05-07T07:49:36.890Z,33.8
2018-05-07T07:50:25.804Z,33.8
2018-05-07T07:51:16.421Z,33.8
2018-05-07T07:52:06.404Z,33.8
2018-05-07T07:52:56.824Z,33.8
2018-05-07T07:53:47.008Z,33.8
2018-05-07T07:54:36.699Z,33.8
2018-05-07T07:55:26.177Z,33.8
2018-05-07T07:56:17.385Z,33.8
2018-05-07T07:57:06.616Z,33.8
2018-05-07T07:57:56.947Z,33.8
2018-05-07T07:58:46.183Z,33.8
2018-05-07T07:59:37.109Z,33.8
2018-05-07T08:00:26.581Z,33.8
2018-05-07T08:01:17.241Z,33.8
2018-05-07T08:02:07.904Z,33.8
2018-05-07T08:02:56.855Z,33.8
2018-05-07T08:03:47.138Z,33.8
2018-05-07T08:04:37.240Z,33.8
2018-05-07T08:05:27.343Z,33.8
2018-05-07T08:06:17.158Z,33.8
2018-05-07T08:07:07.426Z,33.8
2018-05-07T08:07:56.893Z,33.8
2018-05-07T08:08:47.533Z,33.8
2018-05-07T08:09:38.461Z,33.8
2018-05-07T08:10:27.952Z,33.8
2018-05-07T08:11:18.015Z,33.8
2018-05-07T08:12:08.036Z,33.8
2018-05-07T08:12:58.218Z,33.8
2018-05-07T08:13:48.266Z,33.8
2018-05-07T08:14:37.678Z,33.8
2018-05-07T08:15:27.989Z,33.8
2018-05-07T08:16:18.954Z,33.8
2018-05-07T08:17:09.065Z,33.8
2018-05-07T08:17:59.067Z,32.2
2018-05-07T08:18:48.280Z,27.9
2018-05-07T08:19:38.847Z,32.8
2018-05-07T08:20:28.996Z,34.7
2018-05-07T08:21:18.533Z,33.1
2018-05-07T08:22:08.879Z,31.8
2018-05-07T08:22:59.235Z,31.2
2018-05-07T08:23:49.525Z,30.9
2018-05-07T08:24:39.530Z,30.8
2018-05-07T08:25:29.374Z,30.6
2018-05-07T08:26:18.870Z,30.8
2018-05-07T08:27:09.212Z,32.7
2018-05-07T08:27:59.861Z,33.9
2018-05-07T08:28:49.661Z,34.3
2018-05-07T08:29:39.716Z,33.8
2018-05-07T08:30:30.584Z,32.9
2018-05-07T08:31:19.527Z,32.4
2018-05-07T08:32:09.874Z,32.3
2018-05-07T08:33:00.040Z,32.4
2018-05-07T08:33:49.759Z,32.5
2018-05-07T08:34:39.886Z,32.5
2018-05-07T08:35:30.441Z,32.4
2018-05-07T08:36:20.272Z,32.4
2018-05-07T08:37:10.243Z,32.3
2018-05-07T08:38:00.847Z,32.4
2018-05-07T08:38:50.695Z,32.6
2018-05-07T08:39:40.798Z,32.7
2018-05-07T08:40:29.976Z,32.8
2018-05-07T08:41:20.870Z,32.9
2018-05-07T08:42:10.373Z,33.1
2018-05-07T08:43:00.992Z,33.4
2018-05-07T08:43:51.083Z,33.7
2018-05-07T08:44:40.559Z,34.1
2018-05-07T08:45:30.639Z,34.4
2018-05-07T08:46:20.683Z,35
2018-05-07T08:47:11.397Z,35.3
2018-05-07T08:48:01.410Z,35.4
2018-05-07T08:48:50.603Z,35.4
2018-05-07T08:49:41.335Z,35.4
2018-05-07T08:50:31.075Z,35.4
2018-05-07T08:51:21.617Z,35.4
2018-05-07T08:52:11.428Z,35.6
2018-05-07T08:53:02.256Z,35.6
2018-05-07T08:53:51.570Z,35.6
2018-05-07T08:54:41.926Z,35.6
2018-05-07T08:55:31.980Z,35.6
2018-05-07T08:56:22.046Z,35.7
2018-05-07T08:57:11.603Z,35.8
2018-05-07T08:58:01.632Z,35.8
2018-05-07T08:58:51.683Z,35.9
2018-05-07T08:59:41.833Z,35.9
2018-05-07T09:00:31.254Z,36
2018-05-07T09:01:22.508Z,36.1
2018-05-07T09:02:12.986Z,36.2
2018-05-07T09:03:01.535Z,36.3
2018-05-07T09:03:52.157Z,36.4
2018-05-07T09:04:42.445Z,36.5
2018-05-07T09:05:32.792Z,36.6
2018-05-07T09:06:21.139Z,36.7
2018-05-07T09:07:12.333Z,36.8
2018-05-07T09:08:03.353Z,36.9
2018-05-07T09:08:52.729Z,37
2018-05-07T09:09:43.080Z,37.1
2018-05-07T09:10:32.890Z,37.1
2018-05-07T09:11:23.226Z,37.1
2018-05-07T09:12:13.036Z,37.1
2018-05-07T09:13:02.837Z,37.1
2018-05-07T09:13:52.598Z,37.2
2018-05-07T09:14:42.196Z,37.3
2018-05-07T09:15:32.174Z,37.4
2018-05-07T09:16:23.154Z,37.4
2018-05-07T09:17:13.141Z,37.6
2018-05-07T09:18:03.757Z,37.6
2018-05-07T09:18:53.562Z,37.8
2018-05-07T09:19:43.620Z,37.8
2018-05-07T09:20:33.156Z,37.9
2018-05-07T09:21:23.758Z,38.1
2018-05-07T09:22:13.535Z,38.1
2018-05-07T09:23:03.579Z,38.2
2018-05-07T09:23:53.776Z,38.3
2018-05-07T09:24:44.468Z,38.4
2018-05-07T09:25:33.511Z,38.4
2018-05-07T09:26:23.634Z,38.4
2018-05-07T09:27:13.963Z,38.6
2018-05-07T09:28:03.144Z,38.7
2018-05-07T09:28:54.706Z,38.8
2018-05-07T09:29:44.690Z,38.8
2018-05-07T09:30:34.179Z,38.9
2018-05-07T09:31:24.876Z,39
2018-05-07T09:32:14.043Z,39.1
2018-05-07T09:33:04.664Z,39.1
2018-05-07T09:33:54.201Z,39.2
2018-05-07T09:34:45.080Z,39.3
2018-05-07T09:35:35.110Z,39.4
2018-05-07T09:36:24.882Z,39.4
2018-05-07T09:37:15.008Z,39.6
2018-05-07T09:38:04.470Z,39.6
2018-05-07T09:38:55.400Z,39.6
2018-05-07T09:39:45.455Z,39.7
2018-05-07T09:40:35.529Z,39.8
2018-05-07T09:41:25.602Z,39.8
2018-05-07T09:42:15.383Z,39.9
2018-05-07T09:43:05.720Z,39.9
2018-05-07T09:43:55.784Z,40
2018-05-07T09:44:45.580Z,40.1
2018-05-07T09:45:35.338Z,40.1
2018-05-07T09:46:25.687Z,40.1
2018-05-07T09:47:16.040Z,40.2
2018-05-07T09:48:05.845Z,40.3
2018-05-07T09:48:56.426Z,40.4
2018-05-07T09:49:46.290Z,40.4
2018-05-07T09:50:35.480Z,40.5
2018-05-07T09:51:26.388Z,40.5
2018-05-07T09:52:16.426Z,40.6
2018-05-07T09:53:06.218Z,40.6
2018-05-07T09:53:56.285Z,40.6
2018-05-07T09:54:46.066Z,40.7
2018-05-07T09:55:36.215Z,40.8
2018-05-07T09:56:26.758Z,40.8
2018-05-07T09:57:16.805Z,40.8
2018-05-07T09:58:06.913Z,40.8
2018-05-07T09:58:56.492Z,40.8
2018-05-07T09:59:46.993Z,40.8
2018-05-07T10:00:36.334Z,40.8
2018-05-07T10:01:26.870Z,40.7
2018-05-07T10:02:16.966Z,40.7
2018-05-07T10:03:07.301Z,40.6
2018-05-07T10:03:57.096Z,40.5
2018-05-07T10:04:47.148Z,40.4
2018-05-07T10:05:36.975Z,40.4
2018-05-07T10:06:27.078Z,40.3
2018-05-07T10:07:17.625Z,40.3
2018-05-07T10:08:06.837Z,40.1
2018-05-07T10:08:57.496Z,40.1
2018-05-07T10:09:47.813Z,39.9
2018-05-07T10:10:37.321Z,39.9
2018-05-07T10:11:27.380Z,39.8
2018-05-07T10:12:17.995Z,39.7
2018-05-07T10:13:07.504Z,39.6
2018-05-07T10:13:57.614Z,39.4
2018-05-07T10:14:48.184Z,39.3
2018-05-07T10:15:38.333Z,39.1
2018-05-07T10:16:28.067Z,38.9
2018-05-07T10:17:18.119Z,38.8
2018-05-07T10:18:08.189Z,38.6
2018-05-07T10:18:58.549Z,38.4
2018-05-07T10:19:47.844Z,38.4
2018-05-07T10:20:38.407Z,38.4
2018-05-07T10:21:28.745Z,38.4
2018-05-07T10:22:18.244Z,38.4
2018-05-07T10:23:08.394Z,38.4
2018-05-07T10:23:57.701Z,38.4
2018-05-07T10:24:48.229Z,38.5
2018-05-07T10:25:37.991Z,38.5
2018-05-07T10:26:28.620Z,38.4
2018-05-07T10:27:18.459Z,38.4
2018-05-07T10:28:06.826Z,38.4
2018-05-07T10:28:58.663Z,38.4
2018-05-07T10:29:48.411Z,38.4
2018-05-07T10:30:38.953Z,38.5
2018-05-07T10:31:29.030Z,38.6
2018-05-07T10:32:19.057Z,38.8
2018-05-07T10:33:09.410Z,38.9
2018-05-07T10:33:59.713Z,38.9
2018-05-07T10:34:49.531Z,39
2018-05-07T10:35:39.531Z,39.1
2018-05-07T10:36:29.157Z,39.1
2018-05-07T10:37:19.674Z,39.2
2018-05-07T10:38:09.758Z,39.3
2018-05-07T10:38:58.679Z,39.4
2018-05-07T10:39:49.878Z,39.6
2018-05-07T10:40:38.919Z,39.9
2018-05-07T10:41:29.440Z,39.9
2018-05-07T10:42:20.353Z,39.9
2018-05-07T10:43:08.740Z,39.9
2018-05-07T10:44:00.043Z,39.9
2018-05-07T10:44:50.562Z,39.8
2018-05-07T10:45:40.618Z,39.7
2018-05-07T10:46:30.720Z,39.6
2018-05-07T10:47:20.219Z,39.6
2018-05-07T10:48:10.544Z,39.6
2018-05-07T10:49:00.953Z,39.5
2018-05-07T10:49:50.718Z,39.4
2018-05-07T10:50:39.920Z,39.4
2018-05-07T10:51:30.567Z,39.4
2018-05-07T10:52:20.606Z,39.4
2018-05-07T10:53:11.251Z,39.4
2018-05-07T10:53:59.904Z,39.4
2018-05-07T10:54:50.790Z,39.4
2018-05-07T10:55:41.126Z,39.5
2018-05-07T10:56:31.272Z,39.6
2018-05-07T10:57:20.401Z,39.6
2018-05-07T10:58:11.395Z,39.7
2018-05-07T10:59:01.127Z,39.8
2018-05-07T10:59:51.496Z,39.8
2018-05-07T11:00:41.487Z,39.8
2018-05-07T11:01:30.815Z,39.9
2018-05-07T11:02:21.630Z,39.9
2018-05-07T11:03:11.155Z,39.9
2018-05-07T11:04:01.505Z,40
2018-05-07T11:04:51.600Z,40.1
2018-05-07T11:05:42.404Z,40.1
2018-05-07T11:06:32.250Z,40.2
2018-05-07T11:07:22.992Z,40.2
2018-05-07T11:08:12.136Z,40.1
2018-05-07T11:09:01.028Z,40.1
2018-05-07T11:09:51.682Z,40.1
2018-05-07T11:10:42.555Z,40.1
2018-05-07T11:11:32.369Z,40.1
2018-05-07T11:12:22.565Z,40.1
2018-05-07T11:13:12.205Z,40.1
2018-05-07T11:14:02.579Z,40
2018-05-07T11:14:52.697Z,39.9
2018-05-07T11:15:42.128Z,39.9
2018-05-07T11:16:32.575Z,39.9
2018-05-07T11:17:22.892Z,39.9
2018-05-07T11:18:12.973Z,39.9
2018-05-07T11:19:02.979Z,39.9
2018-05-07T11:19:54.126Z,39.9
2018-05-07T11:20:42.829Z,39.9
2018-05-07T11:21:33.144Z,39.9
2018-05-07T11:22:22.980Z,39.9
2018-05-07T11:23:13.579Z,39.9
2018-05-07T11:24:02.550Z,39.9
2018-05-07T11:24:52.931Z,39.9
2018-05-07T11:25:42.977Z,39.9
2018-05-07T11:26:33.053Z,39.9
2018-05-07T11:27:23.344Z,39.9
2018-05-07T11:28:13.152Z,39.9
2018-05-07T11:29:03.530Z,39.9
2018-05-07T11:29:53.575Z,39.9
2018-05-07T11:30:43.330Z,39.9
2018-05-07T11:31:34.272Z,39.9
2018-05-07T11:32:23.979Z,39.9
2018-05-07T11:33:14.029Z,39.8
2018-05-07T11:34:04.192Z,39.8
2018-05-07T11:34:54.540Z,39.8
2018-05-07T11:35:44.521Z,39.8
2018-05-07T11:36:34.025Z,39.8
2018-05-07T11:37:24.378Z,39.9
2018-05-07T11:38:14.456Z,39.9
2018-05-07T11:39:04.906Z,39.9
2018-05-07T11:39:54.595Z,40
2018-05-07T11:40:44.662Z,40.1
2018-05-07T11:41:34.158Z,40.2
2018-05-07T11:42:24.513Z,40.3
2018-05-07T11:43:14.580Z,40.4
2018-05-07T11:44:03.480Z,40.4
2018-05-07T11:44:53.925Z,40.5
2018-05-07T11:45:44.579Z,40.6
2018-05-07T11:46:34.847Z,40.6
2018-05-07T11:47:25.701Z,40.8
2018-05-07T11:48:15.495Z,40.8
2018-05-07T11:49:05.334Z,40.9
2018-05-07T11:49:55.107Z,40.9
2018-05-07T11:50:45.715Z,41.1
2018-05-07T11:51:35.769Z,41.1
2018-05-07T11:52:25.022Z,41.1
2018-05-07T11:53:17.051Z,41.2
2018-05-07T11:54:05.679Z,41.3
2018-05-07T11:54:55.459Z,41.3
2018-05-07T11:55:45.849Z,41.3
2018-05-07T11:56:35.396Z,41.3
2018-05-07T11:57:26.220Z,41.3
2018-05-07T11:58:15.731Z,41.3
2018-05-07T11:59:04.834Z,41.4
2018-05-07T11:59:55.867Z,41.4
2018-05-07T12:00:45.991Z,41.5
2018-05-07T12:01:36.318Z,41.6
2018-05-07T12:02:26.777Z,41.6
2018-05-07T12:03:15.924Z,41.6
2018-05-07T12:04:05.157Z,41.6
2018-05-07T12:04:55.968Z,41.7
2018-05-07T12:05:46.526Z,41.8
2018-05-07T12:06:36.411Z,41.8
2018-05-07T12:07:26.468Z,41.9
2018-05-07T12:08:16.255Z,42
2018-05-07T12:09:07.860Z,42.1
2018-05-07T12:09:56.676Z,42.1
2018-05-07T12:10:46.168Z,42.2
2018-05-07T12:11:37.136Z,42.3
2018-05-07T12:12:27.436Z,42.3
2018-05-07T12:13:16.058Z,42.5
2018-05-07T12:14:06.744Z,42.7
2018-05-07T12:14:57.036Z,42.8
2018-05-07T12:15:48.049Z,42.9
2018-05-07T12:16:37.783Z,42.9
2018-05-07T12:17:27.283Z,42.9
2018-05-07T12:18:17.857Z,43.1
2018-05-07T12:19:07.435Z,43.1
2018-05-07T12:19:57.692Z,43.1
2018-05-07T12:20:47.821Z,43.1
2018-05-07T12:21:38.097Z,43.1
2018-05-07T12:22:27.636Z,43.1
2018-05-07T12:23:19.004Z,43
2018-05-07T12:24:08.379Z,42.9
2018-05-07T12:24:57.767Z,42.9
2018-05-07T12:25:48.177Z,42.9
2018-05-07T12:26:37.669Z,42.9
2018-05-07T12:27:28.564Z,43
2018-05-07T12:28:18.412Z,43.1
2018-05-07T12:29:07.846Z,43.3
2018-05-07T12:29:58.497Z,43.5
2018-05-07T12:30:48.808Z,43.8
2018-05-07T12:31:40.333Z,44.3
2018-05-07T12:32:28.383Z,45.1
2018-05-07T12:33:18.177Z,45.8
2018-05-07T12:34:08.837Z,46.1
2018-05-07T12:34:58.304Z,46.2
2018-05-07T12:35:48.685Z,46.3
2018-05-07T12:36:39.314Z,46.4
2018-05-07T12:37:29.328Z,46.6
2018-05-07T12:38:18.578Z,46.8
2018-05-07T12:39:08.369Z,46.7
2018-05-07T12:39:59.580Z,46.4
2018-05-07T12:40:49.603Z,46.1
2018-05-07T12:41:39.660Z,46
2018-05-07T12:42:29.700Z,46
2018-05-07T12:43:18.979Z,45.9
2018-05-07T12:44:09.581Z,45.9
2018-05-07T12:44:59.111Z,45.9
2018-05-07T12:45:49.439Z,45.9
2018-05-07T12:46:39.741Z,45.9
2018-05-07T12:47:29.029Z,46
2018-05-07T12:48:20.188Z,45.9
2018-05-07T12:49:10.306Z,45.9
2018-05-07T12:50:00.131Z,45.9
2018-05-07T12:50:49.587Z,45.9
2018-05-07T12:51:40.196Z,45.9
2018-05-07T12:52:31.075Z,45.8
2018-05-07T12:53:19.795Z,45.7
2018-05-07T12:54:09.484Z,45.6
2018-05-07T12:54:59.988Z,45.5
2018-05-07T12:55:49.595Z,45.4
2018-05-07T12:56:40.311Z,45.4
2018-05-07T12:57:30.185Z,45.4
2018-05-07T12:58:20.225Z,45.4
2018-05-07T12:59:11.542Z,45.4
2018-05-07T13:00:00.048Z,45.4
2018-05-07T13:00:50.361Z,45.5
2018-05-07T13:01:41.114Z,45.6
2018-05-07T13:02:30.771Z,45.6
2018-05-07T13:03:21.132Z,45.8
2018-05-07T13:04:11.573Z,46.1
2018-05-07T13:05:00.956Z,46.4
2018-05-07T13:05:51.631Z,46.8
2018-05-07T13:06:41.355Z,47.1
2018-05-07T13:07:31.702Z,47.5
2018-05-07T13:08:20.946Z,47.9
2018-05-07T13:09:11.044Z,48.4
2018-05-07T13:10:01.673Z,48.8
2018-05-07T13:10:50.583Z,49.1
2018-05-07T13:11:42.233Z,49.3
2018-05-07T13:12:31.563Z,49.3
2018-05-07T13:13:21.380Z,49.4
2018-05-07T13:14:11.989Z,49.3
2018-05-07T13:15:02.025Z,49.1
2018-05-07T13:15:51.275Z,48.8
2018-05-07T13:16:41.575Z,48.8
2018-05-07T13:17:32.488Z,48.9
2018-05-07T13:18:22.495Z,49.1
2018-05-07T13:19:12.706Z,49.4
2018-05-07T13:20:02.411Z,49.6
2018-05-07T13:20:52.811Z,49.6
2018-05-07T13:21:42.826Z,49.7
2018-05-07T13:22:32.888Z,49.8
2018-05-07T13:23:22.949Z,49.8
2018-05-07T13:24:13.229Z,49.8
2018-05-07T13:25:02.986Z,49.9
2018-05-07T13:25:53.188Z,49.9
2018-05-07T13:26:42.954Z,49.9
2018-05-07T13:27:32.448Z,50
2018-05-07T13:28:22.273Z,50
2018-05-07T13:29:13.169Z,50
2018-05-07T13:30:02.927Z,50.1
2018-05-07T13:30:53.341Z,50.1
2018-05-07T13:31:43.361Z,50.1
2018-05-07T13:32:33.433Z,50.1
2018-05-07T13:33:23.579Z,50.1
2018-05-07T13:34:13.310Z,50.1
2018-05-07T13:35:03.367Z,50
2018-05-07T13:35:54.001Z,49.9
2018-05-07T13:36:44.008Z,49.8
2018-05-07T13:37:33.315Z,49.6
2018-05-07T13:38:23.615Z,49.3
2018-05-07T13:39:13.960Z,49
2018-05-07T13:40:04.013Z,48.8
2018-05-07T13:40:54.116Z,48.6
2018-05-07T13:41:44.445Z,48.5
2018-05-07T13:42:34.208Z,48.4
2018-05-07T13:43:23.996Z,48.4
2018-05-07T13:44:13.856Z,48.4
2018-05-07T13:45:04.686Z,48.3
2018-05-07T13:45:54.177Z,48.3
2018-05-07T13:46:44.789Z,48.3
2018-05-07T13:47:34.903Z,48.3
2018-05-07T13:48:24.985Z,48.3
2018-05-07T13:49:14.188Z,48.3
2018-05-07T13:50:04.808Z,48.3
2018-05-07T13:50:54.610Z,48.3
2018-05-07T13:51:45.204Z,48.3
2018-05-07T13:52:35.270Z,48.3
2018-05-07T13:53:25.395Z,48.3
2018-05-07T13:54:15.108Z,48.3
2018-05-07T13:55:04.945Z,48.3
2018-05-07T13:55:55.010Z,48.3
2018-05-07T13:56:45.482Z,48.4
2018-05-07T13:57:35.123Z,48.4
2018-05-07T13:58:25.753Z,48.4
2018-05-07T13:59:15.567Z,48.4
2018-05-07T14:00:05.857Z,48.4
2018-05-07T14:00:56.060Z,48.4
2018-05-07T14:01:45.771Z,48.4
2018-05-07T14:02:36.593Z,48.4
2018-05-07T14:03:25.579Z,48.4
2018-05-07T14:04:15.941Z,48.4
2018-05-07T14:05:06.268Z,48.4
2018-05-07T14:05:56.022Z,48.4
2018-05-07T14:06:45.853Z,48.4
2018-05-07T14:07:36.186Z,48.3
2018-05-07T14:08:27.017Z,48.3
2018-05-07T14:09:16.324Z,48.3
2018-05-07T14:10:06.155Z,48.2
2018-05-07T14:10:56.456Z,48.2
2018-05-07T14:11:46.522Z,48.1
2018-05-07T14:12:36.919Z,48.1
2018-05-07T14:13:26.404Z,48.1
2018-05-07T14:14:16.417Z,48.1
2018-05-07T14:15:06.803Z,48.1
2018-05-07T14:15:56.551Z,48
2018-05-07T14:16:48.290Z,47.9
2018-05-07T14:17:36.991Z,47.9
2018-05-07T14:18:27.044Z,47.9
2018-05-07T14:19:16.324Z,47.9
2018-05-07T14:20:07.223Z,47.9
2018-05-07T14:20:57.522Z,47.9
2018-05-07T14:21:47.607Z,47.9
2018-05-07T14:22:36.564Z,47.9
2018-05-07T14:23:27.729Z,47.8
2018-05-07T14:24:17.807Z,47.8
2018-05-07T14:25:07.366Z,47.8
2018-05-07T14:25:57.425Z,47.8
2018-05-07T14:26:47.963Z,47.8
2018-05-07T14:27:38.068Z,47.7
2018-05-07T14:28:27.903Z,47.6
2018-05-07T14:29:17.363Z,47.6
2018-05-07T14:30:07.708Z,47.5
2018-05-07T14:30:57.217Z,47.4
2018-05-07T14:31:47.865Z,47.4
2018-05-07T14:32:37.912Z,47.4
2018-05-07T14:33:28.174Z,47.3
2018-05-07T14:34:17.819Z,47.3
2018-05-07T14:35:08.655Z,47.3
2018-05-07T14:35:58.456Z,47.2
2018-05-07T14:36:48.226Z,47.1
2018-05-07T14:37:38.574Z,47
2018-05-07T14:38:28.896Z,46.9
2018-05-07T14:39:18.417Z,46.8
2018-05-07T14:40:09.067Z,46.7
2018-05-07T14:40:59.158Z,46.6
2018-05-07T14:41:46.406Z,46.5
2018-05-07T14:42:37.313Z,46.4
2018-05-07T14:43:26.841Z,46.3
2018-05-07T14:44:17.544Z,46.3
2018-05-07T14:45:06.947Z,46.2
2018-05-07T14:45:57.314Z,46.1
2018-05-07T14:46:47.100Z,46.1
2018-05-07T14:47:37.426Z,46.1
2018-05-07T14:48:27.763Z,46.1
2018-05-07T14:49:17.840Z,46.1
2018-05-07T14:50:07.689Z,46.1
2018-05-07T14:50:57.993Z,46.1
2018-05-07T14:51:47.486Z,46.2
2018-05-07T14:52:37.834Z,46.2
2018-05-07T14:53:27.364Z,46.3
2018-05-07T14:54:17.955Z,46.2
2018-05-07T14:55:08.337Z,46.2
2018-05-07T14:55:58.888Z,46.3
2018-05-07T14:56:48.499Z,46.3
2018-05-07T14:57:38.504Z,46.3
2018-05-07T14:58:28.018Z,46.3
2018-05-07T14:59:18.336Z,46.3
2018-05-07T15:00:08.718Z,46.3
2018-05-07T15:00:58.762Z,46.3
2018-05-07T15:01:48.254Z,46.3
2018-05-07T15:02:38.604Z,46.3
2018-05-07T15:03:28.954Z,46.1
2018-05-07T15:04:19.027Z,45.7
2018-05-07T15:05:09.116Z,45.2
2018-05-07T15:05:59.172Z,44.7
2018-05-07T15:06:48.947Z,44.3
2018-05-07T15:07:39.304Z,43.9
2018-05-07T15:08:29.344Z,43.6
2018-05-07T15:09:18.868Z,43.4
2018-05-07T15:10:08.390Z,43.1
2018-05-07T15:11:01.494Z,42.8
2018-05-07T15:11:50.985Z,42.5
2018-05-07T15:12:41.648Z,42.3
2018-05-07T15:13:31.112Z,42.1
2018-05-07T15:14:21.177Z,41.9
2018-05-07T15:15:11.517Z,41.9
2018-05-07T15:16:01.608Z,41.7
2018-05-07T15:16:51.961Z,41.5
2018-05-07T15:17:41.753Z,41.2
2018-05-07T15:18:32.082Z,40.8
2018-05-07T15:19:21.350Z,40.3
2018-05-07T15:20:11.940Z,39.8
2018-05-07T15:21:01.466Z,39.2
2018-05-07T15:21:52.071Z,38.6
2018-05-07T15:22:42.131Z,38
2018-05-07T15:23:32.973Z,37.3
2018-05-07T15:24:21.974Z,36.6
2018-05-07T15:25:12.069Z,35.9
2018-05-07T15:26:02.389Z,35.4
2018-05-07T15:26:51.455Z,34.9
2018-05-07T15:27:42.055Z,34.6
2018-05-07T15:28:32.156Z,34.3
2018-05-07T15:29:23.129Z,33.9
2018-05-07T15:30:12.729Z,33.6
2018-05-07T15:31:02.497Z,33.3
2018-05-07T15:31:53.173Z,33.1
2018-05-07T15:32:42.961Z,33
2018-05-07T15:33:32.427Z,32.9
2018-05-07T15:34:23.349Z,32.9
2018-05-07T15:35:13.417Z,32.8
2018-05-07T15:36:03.194Z,32.8
2018-05-07T15:36:53.303Z,32.8
2018-05-07T15:37:43.589Z,32.7
2018-05-07T15:38:33.094Z,32.7
2018-05-07T15:39:23.509Z,32.7
2018-05-07T15:40:13.552Z,32.6
2018-05-07T15:41:03.668Z,32.7
2018-05-07T15:41:53.674Z,32.6
2018-05-07T15:42:41.745Z,32.6
2018-05-07T15:43:33.848Z,32.6
2018-05-07T15:44:23.035Z,32.6
2018-05-07T15:45:14.213Z,32.6
2018-05-07T15:46:04.013Z,32.6
2018-05-07T15:46:54.350Z,32.6
2018-05-07T15:47:44.146Z,32.6
2018-05-07T15:48:34.507Z,32.6
2018-05-07T15:49:25.483Z,32.6
2018-05-07T15:50:14.040Z,32.6
2018-05-07T15:51:04.086Z,32.7
2018-05-07T15:51:54.201Z,32.7
2018-05-07T15:52:44.519Z,32.7
2018-05-07T15:53:34.253Z,32.7
2018-05-07T15:54:24.669Z,32.7
2018-05-07T15:55:14.693Z,32.7
2018-05-07T15:56:05.451Z,32.7
2018-05-07T15:56:55.139Z,32.8
2018-05-07T15:57:44.624Z,32.8
2018-05-07T15:58:35.012Z,32.8
2018-05-07T15:59:25.097Z,32.8
2018-05-07T16:00:14.277Z,32.8
2018-05-07T16:01:05.180Z,32.8
2018-05-07T16:01:55.510Z,32.8
2018-05-07T16:02:46.194Z,32.8
2018-05-07T16:03:35.073Z,32.8
2018-05-07T16:04:25.140Z,32.9
2018-05-07T16:05:15.216Z,32.9
2018-05-07T16:06:05.327Z,32.9
2018-05-07T16:06:55.939Z,32.9
2018-05-07T16:07:44.891Z,32.9
2018-05-07T16:08:35.833Z,32.9
2018-05-07T16:09:25.602Z,32.9
2018-05-07T16:10:15.588Z,32.9
2018-05-07T16:11:06.253Z,32.8
2018-05-07T16:11:56.401Z,32.8
2018-05-07T16:12:46.137Z,32.8
2018-05-07T16:13:36.138Z,32.8
2018-05-07T16:14:25.643Z,32.8
2018-05-07T16:15:17.543Z,32.7
2018-05-07T16:16:06.070Z,32.7
2018-05-07T16:16:56.782Z,32.6
2018-05-07T16:17:46.722Z,32.6
2018-05-07T16:18:37.289Z,32.5
2018-05-07T16:19:26.333Z,32.5
2018-05-07T16:20:16.394Z,32.4
2018-05-07T16:21:06.813Z,32.4
2018-05-07T16:21:58.102Z,32.4
2018-05-07T16:22:47.168Z,32.3
2018-05-07T16:23:38.976Z,32.3
2018-05-07T16:24:26.997Z,32.3
2018-05-07T16:25:16.810Z,32.2
2018-05-07T16:26:07.414Z,32.2
2018-05-07T16:26:57.221Z,32.1
2018-05-07T16:27:47.574Z,32.1
2018-05-07T16:28:37.577Z,32.1
2018-05-07T16:29:27.402Z,32.1
2018-05-07T16:30:17.188Z,32.1